createdAt,value
2023-05-05T00:01:20.706Z,99971.88
2023-05-05T00:03:47.663Z,99977.72
2023-05-05T00:06:14.718Z,99971.63
2023-05-05T00:08:42.001Z,99968.34
2023-05-05T00:11:08.657Z,99972.63
2023-05-05T00:13:35.657Z,99973.88
2023-05-05T00:16:02.303Z,99976.47
2023-05-05T00:18:29.693Z,99965.34
2023-05-05T00:20:56.240Z,99966.81
2023-05-05T00:23:22.763Z,99962.50
2023-05-05T00:25:49.408Z,99965.78
2023-05-05T00:28:16.080Z,99957.69
2023-05-05T00:30:42.597Z,99946.31
2023-05-05T00:33:09.248Z,99944.47
2023-05-05T00:35:35.923Z,99941.03
2023-05-05T00:38:03.017Z,99940.66
2023-05-05T00:40:29.707Z,99942.16
2023-05-05T00:42:56.940Z,99944.78
2023-05-05T00:45:23.527Z,99942.38
2023-05-05T00:47:53.727Z,99944.19
2023-05-05T00:50:31.169Z,99951.84
2023-05-05T00:53:03.691Z,99944.94
2023-05-05T00:55:30.999Z,99957.69
2023-05-05T00:57:58.431Z,99944.63
2023-05-05T01:03:18.754Z,99945.31
2023-05-05T01:06:32.824Z,99935.81
2023-05-05T01:09:21.838Z,99939.31
2023-05-05T01:12:32.957Z,99935.41
2023-05-05T01:15:33.290Z,99953.44
2023-05-05T01:18:06.537Z,99939.91
2023-05-05T01:20:48.967Z,99947.28
2023-05-05T01:23:32.517Z,99948.31
2023-05-05T01:26:19.302Z,99941.72
2023-05-05T01:29:20.454Z,99938.22
2023-05-05T01:31:54.984Z,99936.94
2023-05-05T01:34:27.896Z,99925.84
2023-05-05T01:37:11.672Z,99935.72
2023-05-05T01:39:40.313Z,99925.16
2023-05-05T01:42:10.260Z,99929.66
2023-05-05T01:44:38.295Z,99927.66
2023-05-05T01:47:06.300Z,99920.00
2023-05-05T01:49:34.307Z,99922.56
2023-05-05T01:52:01.505Z,99919.25
2023-05-05T01:54:29.111Z,99919.00
2023-05-05T01:56:58.882Z,99904.59
2023-05-05T01:59:27.796Z,99905.59
2023-05-05T02:01:55.212Z,99908.50
2023-05-05T02:04:23.266Z,99907.69
2023-05-05T02:06:53.204Z,99904.69
2023-05-05T02:09:21.628Z,99897.94
2023-05-05T02:11:56.744Z,99892.38
2023-05-05T02:14:24.925Z,99888.91
2023-05-05T02:16:52.385Z,99892.28
2023-05-05T02:19:21.450Z,99893.38
2023-05-05T02:21:48.101Z,99899.22
2023-05-05T02:24:14.797Z,99896.75
2023-05-05T02:26:45.902Z,99897.41
2023-05-05T02:29:18.932Z,99902.34
2023-05-05T02:31:49.088Z,99897.66
2023-05-05T02:34:23.235Z,99899.34
2023-05-05T02:36:52.655Z,99895.00
2023-05-05T02:39:26.077Z,99899.91
2023-05-05T02:41:55.406Z,99890.66
2023-05-05T02:44:24.671Z,99898.06
2023-05-05T02:46:51.479Z,99891.00
2023-05-05T02:49:18.139Z,99892.25
2023-05-05T02:51:44.698Z,99898.69
2023-05-05T02:54:11.407Z,99900.72
2023-05-05T02:56:47.331Z,99896.59
2023-05-05T02:59:22.684Z,99893.66
2023-05-05T03:01:49.269Z,99899.47
2023-05-05T03:04:22.690Z,99894.69
2023-05-05T03:06:53.958Z,99907.63
2023-05-05T03:09:30.078Z,99903.19
2023-05-05T03:12:03.880Z,99900.56
2023-05-05T03:14:38.948Z,99893.41
2023-05-05T03:17:06.742Z,99889.03
2023-05-05T03:19:34.474Z,99889.28
2023-05-05T03:22:03.738Z,99894.69
2023-05-05T03:24:30.471Z,99888.78
2023-05-05T03:26:57.703Z,99888.13
2023-05-05T03:29:25.487Z,99888.06
2023-05-05T03:31:52.294Z,99877.81
2023-05-05T03:34:18.843Z,99881.91
2023-05-05T03:36:45.658Z,99879.16
2023-05-05T03:39:12.476Z,99876.88
2023-05-05T03:41:38.977Z,99874.78
2023-05-05T03:44:05.514Z,99875.69
2023-05-05T03:46:32.102Z,99873.13
2023-05-05T03:48:58.705Z,99876.75
2023-05-05T03:51:25.429Z,99871.63
2023-05-05T03:53:52.445Z,99869.56
2023-05-05T03:56:18.981Z,99874.53
2023-05-05T03:58:45.936Z,99871.84
2023-05-05T04:01:12.555Z,99864.09
2023-05-05T04:03:39.377Z,99867.19
2023-05-05T04:06:06.121Z,99858.22
2023-05-05T04:08:32.832Z,99864.19
2023-05-05T04:10:59.425Z,99868.41
2023-05-05T04:13:25.983Z,99866.41
2023-05-05T04:15:52.733Z,99865.47
2023-05-05T04:18:19.260Z,99864.78
2023-05-05T04:20:46.717Z,99864.97
2023-05-05T04:23:13.482Z,99858.84
2023-05-05T04:25:39.979Z,99852.16
2023-05-05T04:28:06.469Z,99861.03
2023-05-05T04:30:33.288Z,99862.22
2023-05-05T04:32:59.920Z,99860.38
2023-05-05T04:35:26.458Z,99856.94
2023-05-05T04:37:54.620Z,99860.84
2023-05-05T04:40:21.452Z,99862.16
2023-05-05T04:42:47.987Z,99863.94
2023-05-05T04:45:14.625Z,99870.31
2023-05-05T04:47:41.185Z,99870.56
2023-05-05T04:50:08.792Z,99873.56
2023-05-05T04:52:35.916Z,99873.34
2023-05-05T04:55:02.569Z,99876.16
2023-05-05T04:57:30.688Z,99880.47
2023-05-05T04:59:57.509Z,99876.44
2023-05-05T05:02:24.347Z,99877.41
2023-05-05T05:04:50.909Z,99875.72
2023-05-05T05:07:17.538Z,99877.09
2023-05-05T05:09:44.071Z,99887.22
2023-05-05T05:12:10.646Z,99884.38
2023-05-05T05:14:38.269Z,99881.66
2023-05-05T05:17:05.956Z,99889.94
2023-05-05T05:19:32.629Z,99882.50
2023-05-05T05:21:59.250Z,99891.53
2023-05-05T05:24:25.743Z,99885.78
2023-05-05T05:26:52.252Z,99890.22
2023-05-05T05:29:20.463Z,99891.59
2023-05-05T05:31:47.035Z,99890.56
2023-05-05T05:34:13.649Z,99893.66
2023-05-05T05:36:40.538Z,99896.94
2023-05-05T05:39:07.043Z,99884.22
2023-05-05T05:41:33.754Z,99895.69
2023-05-05T05:44:00.594Z,99898.50
2023-05-05T05:46:27.130Z,99901.19
2023-05-05T05:48:53.662Z,99902.41
2023-05-05T05:51:20.505Z,99900.91
2023-05-05T05:53:46.997Z,99900.19
2023-05-05T05:56:13.619Z,99906.38
2023-05-05T05:58:40.771Z,99901.28
2023-05-05T06:01:07.301Z,99895.25
2023-05-05T06:03:33.965Z,99888.63
2023-05-05T06:06:01.456Z,99885.75
2023-05-05T06:08:28.250Z,99873.59
2023-05-05T06:10:54.747Z,99868.47
2023-05-05T06:13:21.642Z,99873.19
2023-05-05T06:15:48.349Z,99867.09
2023-05-05T06:18:14.909Z,99856.16
2023-05-05T06:20:43.521Z,99856.06
2023-05-05T06:23:10.102Z,99850.22
2023-05-05T06:25:36.665Z,99851.56
2023-05-05T06:28:03.472Z,99856.19
2023-05-05T06:30:30.005Z,99863.44
2023-05-05T06:32:56.510Z,99875.81
2023-05-05T06:35:23.188Z,99868.63
2023-05-05T06:37:49.674Z,99879.03
2023-05-05T06:40:16.254Z,99871.13
2023-05-05T06:42:43.101Z,99870.91
2023-05-05T06:45:09.958Z,99874.41
2023-05-05T06:47:36.553Z,99865.31
2023-05-05T06:50:03.898Z,99870.03
2023-05-05T06:52:30.474Z,99863.13
2023-05-05T06:54:56.982Z,99867.88
2023-05-05T06:57:23.802Z,99873.56
2023-05-05T06:59:50.310Z,99872.00
2023-05-05T07:02:16.833Z,99862.75
2023-05-05T07:04:44.231Z,99863.56
2023-05-05T07:07:10.818Z,99866.03
2023-05-05T07:09:37.317Z,99861.34
2023-05-05T07:12:04.195Z,99873.81
2023-05-05T07:14:30.842Z,99872.34
2023-05-05T07:16:57.365Z,99866.41
2023-05-05T07:19:24.093Z,99862.56
2023-05-05T07:21:52.020Z,99860.78
2023-05-05T07:24:18.599Z,99850.72
2023-05-05T07:26:45.371Z,99854.78
2023-05-05T07:29:11.954Z,99854.22
2023-05-05T07:31:38.537Z,99836.56
2023-05-05T07:34:05.339Z,99847.09
2023-05-05T07:36:32.292Z,99835.28
2023-05-05T07:38:58.904Z,99842.50
2023-05-05T07:41:25.622Z,99841.84
2023-05-05T07:43:52.289Z,99850.16
2023-05-05T07:46:18.880Z,99848.63
2023-05-05T07:48:45.578Z,99852.53
2023-05-05T07:51:12.301Z,99862.22
2023-05-05T07:53:41.092Z,99865.69
2023-05-05T07:56:09.061Z,99871.44
2023-05-05T07:58:35.629Z,99873.81
2023-05-05T08:01:02.825Z,99879.94
2023-05-05T08:03:29.666Z,99871.13
2023-05-05T08:05:56.534Z,99878.94
2023-05-05T08:08:24.912Z,99873.13
2023-05-05T08:10:53.312Z,99876.31
2023-05-05T08:13:20.270Z,99864.38
2023-05-05T08:15:46.984Z,99870.38
2023-05-05T08:18:14.628Z,99881.25
2023-05-05T08:20:41.313Z,99872.28
2023-05-05T08:23:07.868Z,99877.41
2023-05-05T08:25:34.667Z,99886.84
2023-05-05T08:28:01.478Z,99888.50
2023-05-05T08:30:28.110Z,99883.81
2023-05-05T08:32:55.192Z,99878.16
2023-05-05T08:35:22.309Z,99874.97
2023-05-05T08:37:50.214Z,99870.19
2023-05-05T08:40:17.048Z,99875.53
2023-05-05T08:42:45.601Z,99887.31
2023-05-05T08:45:12.359Z,99888.50
2023-05-05T08:47:39.730Z,99891.31
2023-05-05T08:50:07.457Z,99889.22
2023-05-05T08:52:40.550Z,99896.16
2023-05-05T08:55:13.149Z,99887.94
2023-05-05T08:58:01.142Z,99888.41
2023-05-05T09:00:27.986Z,99881.28
2023-05-05T09:02:57.240Z,99884.97
2023-05-05T09:05:24.665Z,99879.75
2023-05-05T09:07:51.324Z,99868.44
2023-05-05T09:10:18.597Z,99870.63
2023-05-05T09:12:45.494Z,99876.34
2023-05-05T09:15:17.563Z,99868.97
2023-05-05T09:17:44.338Z,99871.97
2023-05-05T09:20:13.217Z,99870.00
2023-05-05T09:22:43.625Z,99861.59
2023-05-05T09:25:12.245Z,99849.75
2023-05-05T09:27:41.317Z,99842.03
2023-05-05T09:30:09.935Z,99843.16
2023-05-05T09:32:53.552Z,99837.59
2023-05-05T09:35:21.251Z,99830.16
2023-05-05T09:37:47.831Z,99835.50
2023-05-05T09:40:17.689Z,99830.53
2023-05-05T09:42:44.967Z,99825.94
2023-05-05T09:45:17.579Z,99828.44
2023-05-05T09:47:48.334Z,99830.84
2023-05-05T09:50:18.690Z,99830.56
2023-05-05T09:52:59.623Z,99826.03
2023-05-05T09:55:26.360Z,99829.00
2023-05-05T09:57:53.108Z,99823.38
2023-05-05T10:00:20.724Z,99819.66
2023-05-05T10:02:47.662Z,99828.81
2023-05-05T10:05:19.209Z,99830.06
2023-05-05T10:07:47.784Z,99829.81
2023-05-05T10:10:16.805Z,99822.97
2023-05-05T10:12:46.662Z,99819.81
2023-05-05T10:15:15.761Z,99820.47
2023-05-05T10:20:19.356Z,99814.84
2023-05-05T10:22:54.695Z,99815.91
2023-05-05T10:25:31.278Z,99822.22
2023-05-05T10:28:01.514Z,99810.41
2023-05-05T10:30:32.711Z,99817.59
2023-05-05T10:33:31.667Z,99819.19
2023-05-05T10:36:02.586Z,99819.38
2023-05-05T10:38:31.107Z,99806.28
2023-05-05T10:41:00.088Z,99811.03
2023-05-05T10:43:31.612Z,99807.66
2023-05-05T10:45:59.208Z,99821.59
2023-05-05T10:48:47.160Z,99812.75
2023-05-05T10:51:40.009Z,99809.91
2023-05-05T10:54:43.289Z,99799.72
2023-05-05T10:57:11.240Z,99798.38
2023-05-05T10:59:38.103Z,99793.25
2023-05-05T11:02:31.872Z,99798.22
2023-05-05T11:05:05.734Z,99789.88
2023-05-05T11:07:34.493Z,99779.25
2023-05-05T11:10:02.893Z,99771.25
2023-05-05T11:12:31.112Z,99783.56
2023-05-05T11:15:26.155Z,99783.09
2023-05-05T11:17:53.291Z,99774.50
2023-05-05T11:20:49.134Z,99779.16
2023-05-05T11:23:22.075Z,99782.97
2023-05-05T11:25:48.685Z,99783.31
2023-05-05T11:28:25.619Z,99782.91
2023-05-05T11:30:55.777Z,99768.50
2023-05-05T11:33:32.790Z,99766.41
2023-05-05T11:36:01.846Z,99764.00
2023-05-05T11:38:40.690Z,99757.09
2023-05-05T11:41:17.323Z,99753.47
2023-05-05T11:43:43.995Z,99749.66
2023-05-05T11:46:12.859Z,99741.34
2023-05-05T11:48:47.366Z,99760.03
2023-05-05T11:51:15.120Z,99766.47
2023-05-05T11:53:51.085Z,99761.06
2023-05-05T11:56:19.709Z,99763.72
2023-05-05T11:58:47.145Z,99760.47
2023-05-05T12:01:14.015Z,99758.44
2023-05-05T12:03:41.114Z,99752.59
2023-05-05T12:06:08.698Z,99763.28
2023-05-05T12:08:39.763Z,99762.88
2023-05-05T12:11:11.079Z,99771.34
2023-05-05T12:13:37.697Z,99766.47
2023-05-05T12:16:14.914Z,99755.09
2023-05-05T12:18:42.057Z,99755.06
2023-05-05T12:21:19.399Z,99761.47
2023-05-05T12:23:46.585Z,99758.91
2023-05-05T12:26:30.534Z,99758.09
2023-05-05T12:28:58.360Z,99753.13
2023-05-05T12:31:38.771Z,99751.59
2023-05-05T12:34:06.775Z,99759.34
2023-05-05T12:36:34.691Z,99749.22
2023-05-05T12:39:01.654Z,99755.31
2023-05-05T12:41:28.505Z,99749.06
2023-05-05T12:43:59.370Z,99745.78
2023-05-05T12:46:27.163Z,99752.63
2023-05-05T12:49:04.829Z,99734.75
2023-05-05T12:51:36.113Z,99720.66
2023-05-05T12:54:09.871Z,99728.63
2023-05-05T12:56:44.949Z,99728.16
2023-05-05T12:59:23.490Z,99716.94
